Terminal Aerodrome Forecast
Issued by NWS Wilmington, OH

Current Version | Previous Version | Text Only | Print | Product List | Glossary Off
Versions: 1 2 3 4 5 6 7 8 9 10 11 12 13 14 15 16 17 18 19 20 21 22 23 24 25

000
FTUS41 KILN 150953 AAB
TAFCVG
TAF AMD
KCVG 150953Z 1510/1612 21012G20KT P6SM FEW020 BKN100 WS020/23040KT
      TEMPO 1510/1512 BKN015
     FM151400 22014G26KT P6SM VCSH BKN060
     FM151600 25016G26KT P6SM VCSH OVC035
      TEMPO 1517/1519 5SM -SHRA BKN025
     FM151900 29014G24KT P6SM OVC035
     FM160100 32012KT P6SM BKN060
     FM160700 34004KT P6SM SCT060=

USA.gov is the U.S. government's official web portal to all federal, state and local government web resources and services.